Time;durP1;ratioP1;P1;durP2;ratioP2;P2;SDS_P1;SDS_P2;PMS_P1;PMS_P2;Temp;Humidity;BMP_temperature;BMP_pressure;BME280_temperature;BME280_humidity;BME280_pressure;Samples;Min_cycle;Max_cycle;Signal;HPM_P1;HPM_P2
2023/12/05 00:00:37;;;;;;;39.25;26.35;;;-2.30;1.00;;;;;;5154417;27;20226;-77
2023/12/05 00:03:04;;;;;;;35.90;25.70;;;-2.20;1.00;;;;;;5150791;27;21034;-76
2023/12/05 00:05:31;;;;;;;36.38;27.55;;;-2.30;1.00;;;;;;5151667;27;20334;-76
2023/12/05 00:08:01;;;;;;;37.60;26.05;;;-2.30;1.00;;;;;;5150645;27;20704;-76
2023/12/05 00:10:31;;;;;;;39.42;27.38;;;-2.30;1.00;;;;;;5154733;27;20335;-77
2023/12/05 00:13:00;;;;;;;43.47;27.10;;;-2.20;1.00;;;;;;5150714;27;20260;-75
2023/12/05 00:15:28;;;;;;;36.97;27.55;;;-2.20;1.00;;;;;;5150367;27;20237;-76
2023/12/05 00:17:55;;;;;;;36.45;24.73;;;-2.30;1.00;;;;;;5153266;27;20318;-76
2023/12/05 00:20:23;;;;;;;39.10;26.33;;;-2.30;1.00;;;;;;5149140;27;20229;-76
2023/12/05 00:22:52;;;;;;;34.88;23.98;;;-2.30;1.00;;;;;;5151639;27;20318;-79
2023/12/05 00:25:20;;;;;;;38.78;27.60;;;-2.40;1.00;;;;;;5151734;27;21210;-76
2023/12/05 00:27:48;;;;;;;38.20;25.80;;;-2.40;1.00;;;;;;5151950;27;20246;-77
2023/12/05 00:30:17;;;;;;;37.13;26.23;;;-2.40;1.00;;;;;;5155143;27;20737;-76
2023/12/05 00:32:45;;;;;;;37.25;25.75;;;-2.30;1.00;;;;;;5156611;27;20337;-76
2023/12/05 00:35:14;;;;;;;38.90;27.00;;;-2.30;1.00;;;;;;5154861;27;20230;-76
2023/12/05 00:37:44;;;;;;;39.30;27.58;;;-2.30;1.00;;;;;;5153622;27;21006;-77
2023/12/05 00:40:13;;;;;;;36.08;25.60;;;-2.30;1.00;;;;;;5150567;27;20835;-76
2023/12/05 00:42:42;;;;;;;38.45;26.35;;;-2.30;1.00;;;;;;5159318;27;20720;-76
2023/12/05 00:45:13;;;;;;;33.10;24.35;;;-2.20;1.00;;;;;;5147868;27;21231;-76
2023/12/05 00:47:42;;;;;;;35.60;24.00;;;-2.20;1.00;;;;;;5161216;27;20233;-76
2023/12/05 00:50:13;;;;;;;37.38;26.10;;;-2.20;1.00;;;;;;5148558;27;20711;-76
2023/12/05 00:52:41;;;;;;;36.28;25.13;;;-2.20;1.00;;;;;;5150481;27;20230;-75
2023/12/05 00:55:09;;;;;;;40.10;27.83;;;-2.20;1.00;;;;;;5155525;27;20234;-76
2023/12/05 00:57:36;;;;;;;32.92;24.83;;;-2.10;1.00;;;;;;5156369;27;20239;-77
2023/12/05 01:00:09;;;;;;;34.88;25.23;;;-2.20;1.00;;;;;;5152238;27;20820;-76
2023/12/05 01:02:38;;;;;;;34.67;25.63;;;-2.10;1.00;;;;;;5145745;27;21061;-75
2023/12/05 01:05:08;;;;;;;35.90;25.13;;;-2.00;1.00;;;;;;5153044;27;20282;-75
2023/12/05 01:07:35;;;;;;;35.53;24.50;;;-2.10;1.00;;;;;;5155578;27;20216;-77
2023/12/05 01:10:03;;;;;;;36.33;23.52;;;-2.00;1.00;;;;;;5151071;27;20244;-75
2023/12/05 01:12:30;;;;;;;33.10;25.30;;;-2.00;1.00;;;;;;5151759;27;26748;-76
2023/12/05 01:14:59;;;;;;;35.97;26.05;;;-1.90;1.00;;;;;;5156706;27;20631;-77
2023/12/05 01:17:26;;;;;;;34.53;24.70;;;-1.90;1.00;;;;;;5155554;27;20222;-76
2023/12/05 01:19:54;;;;;;;38.10;25.55;;;-1.90;1.00;;;;;;5157339;27;20297;-77
2023/12/05 01:22:22;;;;;;;34.28;25.50;;;-1.90;1.00;;;;;;5150697;27;20238;-78
2023/12/05 01:24:55;;;;;;;41.10;26.98;;;-1.90;1.00;;;;;;5152928;27;20320;-77
2023/12/05 01:27:24;;;;;;;37.13;24.90;;;-1.90;1.00;;;;;;5151668;27;20238;-77
2023/12/05 01:29:52;;;;;;;33.28;24.67;;;-1.90;1.00;;;;;;5152808;27;20234;-76
2023/12/05 01:32:19;;;;;;;37.85;25.88;;;-1.90;1.00;;;;;;5157384;27;20242;-77
2023/12/05 01:34:46;;;;;;;39.47;27.58;;;-2.00;1.00;;;;;;5153519;27;20222;-78
2023/12/05 01:37:14;;;;;;;36.92;25.52;;;-2.00;1.00;;;;;;5146171;27;20869;-77
2023/12/05 01:39:42;;;;;;;35.47;26.30;;;-1.90;1.00;;;;;;5165515;27;20274;-76
2023/12/05 01:42:11;;;;;;;40.67;26.45;;;-1.90;1.00;;;;;;5155435;27;21013;-78
2023/12/05 01:44:39;;;;;;;34.30;24.65;;;-1.90;1.00;;;;;;5143021;27;20683;-76
2023/12/05 01:47:11;;;;;;;36.95;26.60;;;-1.90;1.00;;;;;;5155031;27;20274;-76
2023/12/05 01:49:41;;;;;;;35.33;24.33;;;-2.00;1.00;;;;;;5169277;27;20233;-76
2023/12/05 01:52:12;;;;;;;40.50;28.10;;;-1.90;1.00;;;;;;5155342;27;20234;-76
2023/12/05 01:54:43;;;;;;;37.38;25.95;;;-1.90;1.00;;;;;;5152607;27;20245;-76
2023/12/05 01:57:10;;;;;;;35.05;26.13;;;-1.90;1.00;;;;;;5155124;27;20246;-78
2023/12/05 01:59:39;;;;;;;37.03;26.25;;;-1.80;1.00;;;;;;5149261;27;20237;-78
2023/12/05 02:02:07;;;;;;;39.00;26.75;;;-1.80;1.00;;;;;;5153965;27;20324;-78
2023/12/05 02:04:35;;;;;;;34.22;25.10;;;-1.80;1.00;;;;;;5153885;27;20237;-76
2023/12/05 02:07:07;;;;;;;39.33;26.48;;;-1.80;1.00;;;;;;5158138;27;20237;-76
2023/12/05 02:09:38;;;;;;;35.78;27.48;;;-1.80;1.00;;;;;;5152591;27;20245;-77
2023/12/05 02:12:08;;;;;;;37.25;26.23;;;-1.90;1.00;;;;;;5153421;27;20918;-76
2023/12/05 02:14:35;;;;;;;37.60;26.50;;;-1.90;1.00;;;;;;5155625;27;20237;-77
2023/12/05 02:17:11;;;;;;;33.88;26.95;;;-1.90;1.00;;;;;;5153472;27;20427;-77
2023/12/05 02:19:58;;;;;;;37.38;26.40;;;-1.90;1.00;;;;;;5154081;27;20237;-76
2023/12/05 02:23:09;;;;;;;35.67;25.08;;;-1.80;1.00;;;;;;5155404;27;20720;-77
2023/12/05 02:25:50;;;;;;;39.38;26.58;;;-1.80;1.00;;;;;;5099164;27;20745;-77
2023/12/05 02:28:23;;;;;;;39.38;27.20;;;-1.80;1.00;;;;;;5149566;27;20450;-76
2023/12/05 02:30:50;;;;;;;41.20;27.58;;;-1.80;1.00;;;;;;5151897;27;20858;-77
2023/12/05 02:33:20;;;;;;;38.58;26.38;;;-1.80;1.00;;;;;;5153213;27;20241;-77
2023/12/05 02:35:55;;;;;;;34.60;24.38;;;-1.90;1.00;;;;;;5146743;27;21106;-78
2023/12/05 02:38:28;;;;;;;37.20;26.30;;;-1.80;1.00;;;;;;5155217;27;20274;-77
2023/12/05 02:41:04;;;;;;;35.85;24.85;;;-1.70;1.00;;;;;;5154161;27;20242;-76
2023/12/05 02:43:42;;;;;;;35.50;24.67;;;-1.70;1.00;;;;;;5155449;27;20283;-76
2023/12/05 02:46:11;;;;;;;34.63;25.30;;;-1.70;1.00;;;;;;5152049;27;20265;-76
2023/12/05 02:48:41;;;;;;;39.28;25.20;;;-1.70;1.00;;;;;;5157971;27;20237;-77
2023/12/05 02:51:09;;;;;;;39.50;27.05;;;-1.80;1.00;;;;;;5150709;27;20307;-78
2023/12/05 02:53:36;;;;;;;34.03;25.15;;;-1.80;1.00;;;;;;5151232;27;20320;-78
2023/12/05 02:56:04;;;;;;;40.60;26.85;;;-1.70;1.00;;;;;;5155954;27;20294;-77
2023/12/05 02:58:33;;;;;;;37.47;27.15;;;-1.80;1.00;;;;;;5155396;27;20778;-77
2023/12/05 03:01:02;;;;;;;38.33;25.60;;;-1.70;1.00;;;;;;5152766;27;20225;-78
2023/12/05 03:03:29;;;;;;;34.40;25.33;;;-1.70;1.00;;;;;;5155396;27;20258;-76
2023/12/05 03:06:00;;;;;;;35.88;26.67;;;-1.70;1.00;;;;;;5152289;27;20245;-77
2023/12/05 03:08:27;;;;;;;38.35;25.33;;;-1.70;1.00;;;;;;5156089;27;20716;-77
2023/12/05 03:10:54;;;;;;;35.92;26.60;;;-1.60;1.00;;;;;;5153850;27;20230;-78
2023/12/05 03:13:21;;;;;;;35.90;25.90;;;-1.50;1.00;;;;;;5155223;27;20562;-76
2023/12/05 03:15:50;;;;;;;33.50;26.08;;;-1.50;1.00;;;;;;5149537;27;21180;-76
2023/12/05 03:18:16;;;;;;;35.80;23.60;;;-1.50;1.00;;;;;;5150543;27;20257;-79
2023/12/05 03:20:46;;;;;;;39.03;26.90;;;-1.50;1.00;;;;;;5151837;27;20256;-78
2023/12/05 03:23:16;;;;;;;38.00;26.38;;;-1.50;1.00;;;;;;5152349;27;20237;-79
2023/12/05 03:25:45;;;;;;;33.83;25.02;;;-1.40;1.00;;;;;;5158252;27;20238;-80
2023/12/05 03:28:12;;;;;;;37.05;26.55;;;-1.50;1.00;;;;;;5153189;27;20233;-80
2023/12/05 03:30:40;;;;;;;36.05;24.35;;;-1.50;1.00;;;;;;5155027;27;20245;-78
2023/12/05 03:33:08;;;;;;;29.33;24.13;;;-1.50;1.00;;;;;;5156072;27;20325;-78
2023/12/05 03:35:37;;;;;;;34.17;23.48;;;-1.50;1.00;;;;;;5156132;27;20252;-80
2023/12/05 03:38:05;;;;;;;36.03;25.20;;;-1.60;1.00;;;;;;5152435;27;20234;-79
2023/12/05 03:40:32;;;;;;;35.50;25.77;;;-1.60;1.00;;;;;;5152674;27;20263;-78
2023/12/05 03:42:59;;;;;;;35.00;24.92;;;-1.60;1.00;;;;;;5156039;27;20241;-79
2023/12/05 03:45:29;;;;;;;35.08;24.60;;;-1.60;1.00;;;;;;5152301;27;20388;-77
2023/12/05 03:47:56;;;;;;;32.38;23.85;;;-1.40;1.00;;;;;;5151569;27;20333;-79
2023/12/05 03:50:25;;;;;;;36.25;26.42;;;-1.40;1.00;;;;;;5154610;27;20271;-79
2023/12/05 03:52:52;;;;;;;36.65;25.67;;;-1.40;1.00;;;;;;5152767;27;20301;-79
2023/12/05 03:55:22;;;;;;;35.55;26.20;;;-1.40;1.00;;;;;;5151460;27;20300;-77
2023/12/05 03:57:50;;;;;;;38.65;26.75;;;-1.40;1.00;;;;;;5154037;27;20218;-77
2023/12/05 04:00:19;;;;;;;37.35;25.30;;;-1.40;1.00;;;;;;5157593;27;20393;-79
2023/12/05 04:02:47;;;;;;;36.15;27.17;;;-1.40;1.00;;;;;;5152572;27;20229;-80
2023/12/05 04:05:16;;;;;;;38.85;27.85;;;-1.30;1.00;;;;;;5153381;27;20295;-80
2023/12/05 04:07:47;;;;;;;37.67;27.58;;;-1.30;1.00;;;;;;5157271;27;20320;-80
2023/12/05 04:10:15;;;;;;;36.35;26.70;;;-1.30;1.00;;;;;;5161038;27;20255;-78
2023/12/05 04:12:42;;;;;;;35.00;25.85;;;-1.20;1.00;;;;;;5160641;27;20236;-79
2023/12/05 04:15:10;;;;;;;36.30;27.40;;;-1.10;1.00;;;;;;5165360;27;20309;-80
2023/12/05 04:17:39;;;;;;;36.70;26.98;;;-1.30;1.00;;;;;;5159962;27;20238;-80
2023/12/05 04:20:11;;;;;;;36.78;27.08;;;-1.30;1.00;;;;;;5157275;27;20238;-80
2023/12/05 04:22:38;;;;;;;34.55;26.10;;;-1.30;1.00;;;;;;5157656;27;20231;-79
2023/12/05 04:25:12;;;;;;;40.35;27.80;;;-1.40;1.00;;;;;;5160111;27;20248;-81
2023/12/05 04:27:39;;;;;;;39.47;27.10;;;-1.30;1.00;;;;;;5156916;27;21030;-80
2023/12/05 04:30:07;;;;;;;34.90;27.48;;;-1.30;1.00;;;;;;5157146;27;20258;-79
2023/12/05 04:32:37;;;;;;;37.40;26.33;;;-1.30;1.00;;;;;;5158468;27;20234;-80
2023/12/05 04:35:05;;;;;;;36.15;26.67;;;-1.30;1.00;;;;;;5156628;27;21103;-80
2023/12/05 04:37:34;;;;;;;36.60;25.77;;;-1.30;1.00;;;;;;5157211;27;20323;-80
2023/12/05 04:40:01;;;;;;;37.85;26.65;;;-1.30;1.00;;;;;;5155593;27;20241;-80
2023/12/05 04:42:30;;;;;;;35.45;24.55;;;-1.30;1.00;;;;;;5166537;27;20234;-80
2023/12/05 04:44:58;;;;;;;34.67;24.90;;;-1.30;1.00;;;;;;5159397;27;20273;-82
2023/12/05 04:47:25;;;;;;;37.40;27.15;;;-1.20;1.00;;;;;;5163251;27;20291;-78
2023/12/05 04:49:54;;;;;;;39.42;25.58;;;-1.20;1.00;;;;;;5160145;27;20321;-79
2023/12/05 04:52:22;;;;;;;33.92;25.83;;;-1.00;1.00;;;;;;5161367;27;20234;-79
2023/12/05 04:54:50;;;;;;;35.83;25.50;;;-1.00;1.00;;;;;;5157659;27;20249;-80
2023/12/05 04:57:17;;;;;;;37.63;28.27;;;-1.20;1.00;;;;;;5154100;27;21209;-80
2023/12/05 04:59:46;;;;;;;34.90;24.88;;;-1.20;1.00;;;;;;5156574;27;20241;-79
2023/12/05 05:02:14;;;;;;;36.92;25.17;;;-1.30;1.00;;;;;;5157810;27;20233;-78
2023/12/05 05:04:41;;;;;;;33.97;25.95;;;-1.30;1.00;;;;;;5154765;27;20237;-78
2023/12/05 05:07:08;;;;;;;35.97;26.60;;;-1.20;1.00;;;;;;5157387;27;20236;-78
2023/12/05 05:09:39;;;;;;;37.20;25.45;;;-1.30;1.00;;;;;;5158173;27;20342;-80
2023/12/05 05:12:10;;;;;;;38.67;27.17;;;-1.30;1.00;;;;;;5155618;27;20230;-80
2023/12/05 05:14:37;;;;;;;32.33;24.13;;;-1.20;1.00;;;;;;5154983;27;20238;-80
2023/12/05 05:17:08;;;;;;;32.13;24.05;;;-1.20;1.00;;;;;;5153503;27;20637;-80
2023/12/05 05:19:35;;;;;;;35.63;27.85;;;-1.20;1.00;;;;;;5157775;27;20225;-78
2023/12/05 05:22:02;;;;;;;36.35;27.88;;;-1.10;1.00;;;;;;5155433;27;20242;-78
2023/12/05 05:24:32;;;;;;;38.70;26.27;;;-1.20;1.00;;;;;;5153906;27;20318;-79
2023/12/05 05:27:01;;;;;;;37.15;26.30;;;-1.20;1.00;;;;;;5155666;27;20237;-80
2023/12/05 05:29:28;;;;;;;33.92;25.98;;;-1.10;1.00;;;;;;5157861;27;20510;-77
2023/12/05 05:31:56;;;;;;;39.50;26.50;;;-1.00;1.00;;;;;;5158957;27;20294;-81
2023/12/05 05:34:28;;;;;;;36.53;27.80;;;-0.90;1.00;;;;;;5157548;27;20242;-83
2023/12/05 05:36:55;;;;;;;34.55;26.30;;;-0.80;1.00;;;;;;5154600;27;20315;-81
2023/12/05 05:39:22;;;;;;;33.47;24.38;;;-0.80;1.00;;;;;;5148963;27;20234;-80
2023/12/05 05:41:50;;;;;;;35.83;26.95;;;-1.00;1.00;;;;;;5156481;27;20226;-81
2023/12/05 05:44:17;;;;;;;39.17;26.13;;;-0.90;1.00;;;;;;5159462;27;21136;-81
2023/12/05 05:46:44;;;;;;;37.63;27.63;;;-0.90;1.00;;;;;;5160976;27;20237;-80
2023/12/05 05:49:11;;;;;;;33.72;26.90;;;-0.80;1.00;;;;;;5157801;27;20312;-81
2023/12/05 05:51:43;;;;;;;34.08;25.85;;;-0.80;1.00;;;;;;5155902;27;20234;-80
2023/12/05 05:54:12;;;;;;;29.27;23.85;;;-0.80;1.00;;;;;;5158301;27;21165;-79
2023/12/05 05:56:41;;;;;;;34.38;25.60;;;-0.80;1.00;;;;;;5148998;27;20238;-79
2023/12/05 05:59:08;;;;;;;37.72;26.00;;;-0.80;1.00;;;;;;5153107;27;20309;-83
2023/12/05 06:01:35;;;;;;;32.28;24.90;;;-0.80;1.00;;;;;;5155061;27;20294;-81
2023/12/05 06:04:02;;;;;;;34.15;25.77;;;-0.70;1.00;;;;;;5154318;27;20328;-80
2023/12/05 06:06:30;;;;;;;33.70;26.80;;;-0.70;1.00;;;;;;5152920;27;20943;-83
2023/12/05 06:08:59;;;;;;;32.83;24.88;;;-0.70;1.00;;;;;;5157622;27;20265;-81
2023/12/05 06:11:29;;;;;;;34.60;25.10;;;-0.70;1.00;;;;;;5148936;27;20445;-78
2023/12/05 06:13:56;;;;;;;34.85;25.08;;;-0.70;1.00;;;;;;5153067;27;20878;-80
2023/12/05 06:16:23;;;;;;;34.50;24.23;;;-0.60;1.00;;;;;;5156682;27;21151;-80
2023/12/05 06:18:50;;;;;;;36.85;26.77;;;-0.50;1.00;;;;;;5149379;27;20239;-80
2023/12/05 06:21:18;;;;;;;38.28;26.67;;;-0.60;1.00;;;;;;5157885;27;20787;-80
2023/12/05 06:23:48;;;;;;;34.25;25.02;;;-0.60;1.00;;;;;;5152974;27;20709;-80
2023/12/05 06:26:16;;;;;;;33.05;25.77;;;-0.50;1.00;;;;;;5154799;27;20234;-83
2023/12/05 06:28:44;;;;;;;33.70;25.60;;;-0.70;1.00;;;;;;5154527;27;20242;-77
2023/12/05 06:31:11;;;;;;;37.28;25.77;;;-0.70;1.00;;;;;;5156958;27;21034;-81
2023/12/05 06:33:38;;;;;;;33.15;25.55;;;-0.70;1.00;;;;;;5154611;27;20327;-80
2023/12/05 06:36:07;;;;;;;33.05;25.40;;;-0.60;1.00;;;;;;5161577;27;20290;-80
2023/12/05 06:38:35;;;;;;;36.17;25.00;;;-0.50;1.00;;;;;;5158598;27;21469;-82
2023/12/05 06:41:02;;;;;;;33.35;25.67;;;-0.50;1.00;;;;;;5162254;27;20250;-81
2023/12/05 06:43:32;;;;;;;32.70;25.92;;;-0.50;1.00;;;;;;5144159;27;20268;-79
2023/12/05 06:45:59;;;;;;;32.90;25.30;;;-0.50;1.00;;;;;;5158550;27;20233;-81
2023/12/05 06:48:29;;;;;;;34.30;26.17;;;-0.50;1.00;;;;;;5164290;27;20225;-82
2023/12/05 06:50:56;;;;;;;34.67;27.15;;;-0.40;1.00;;;;;;5155194;27;20733;-80
2023/12/05 06:53:24;;;;;;;32.10;26.50;;;-0.40;1.00;;;;;;5155868;27;20299;-81
2023/12/05 06:55:51;;;;;;;34.85;26.92;;;-0.30;1.00;;;;;;5156582;27;20242;-82
2023/12/05 06:58:21;;;;;;;30.90;24.95;;;-0.30;1.00;;;;;;5156620;27;20235;-83
2023/12/05 07:00:50;;;;;;;38.03;27.70;;;-0.30;1.00;;;;;;5152019;27;20241;-79
2023/12/05 07:03:17;;;;;;;37.05;26.92;;;-0.50;1.00;;;;;;5155940;27;20230;-81
2023/12/05 07:05:46;;;;;;;37.55;25.33;;;-0.40;1.00;;;;;;5150323;27;20229;-81
2023/12/05 07:08:17;;;;;;;35.65;25.10;;;-0.40;1.00;;;;;;5157075;27;20237;-78
2023/12/05 07:10:44;;;;;;;35.78;26.55;;;-0.50;1.00;;;;;;5157532;27;20234;-80
2023/12/05 07:13:12;;;;;;;38.13;27.35;;;-0.50;1.00;;;;;;5151243;27;20310;-81
2023/12/05 07:15:44;;;;;;;32.63;25.55;;;-0.50;1.00;;;;;;5151944;27;20222;-81
2023/12/05 07:18:12;;;;;;;33.60;25.23;;;-0.40;1.00;;;;;;5151067;27;21005;-82
2023/12/05 07:20:39;;;;;;;34.20;25.75;;;-0.40;1.00;;;;;;5155850;27;20237;-80
2023/12/05 07:23:06;;;;;;;33.17;23.75;;;-0.40;1.00;;;;;;5154959;27;20238;-80
2023/12/05 07:25:33;;;;;;;37.58;27.30;;;-0.40;1.00;;;;;;5155252;27;20238;-81
2023/12/05 07:28:00;;;;;;;34.53;26.38;;;-0.50;1.00;;;;;;5151527;27;20253;-82
2023/12/05 07:30:28;;;;;;;32.88;25.70;;;-0.50;1.00;;;;;;5146925;27;20314;-79
2023/12/05 07:32:55;;;;;;;38.00;26.05;;;-0.40;1.00;;;;;;5152710;27;21132;-80
2023/12/05 07:35:23;;;;;;;30.83;24.35;;;-0.40;1.00;;;;;;5154918;27;20269;-82
2023/12/05 07:37:50;;;;;;;39.22;27.77;;;-0.40;1.00;;;;;;5158911;27;20237;-80
2023/12/05 07:40:17;;;;;;;34.60;26.85;;;-0.40;1.00;;;;;;5148437;27;20233;-81
2023/12/05 07:42:45;;;;;;;36.97;26.20;;;-0.40;1.00;;;;;;5151925;27;20263;-81
2023/12/05 07:45:14;;;;;;;34.78;26.35;;;-0.30;1.00;;;;;;5155824;27;20333;-79
2023/12/05 07:47:43;;;;;;;41.30;28.38;;;-0.30;1.00;;;;;;5149855;27;20253;-79
2023/12/05 07:50:13;;;;;;;35.70;26.60;;;-0.30;1.00;;;;;;5142030;27;20300;-78
2023/12/05 07:52:42;;;;;;;33.20;25.60;;;-0.40;1.00;;;;;;5164655;27;20334;-79
2023/12/05 07:55:09;;;;;;;33.03;27.00;;;-0.40;1.00;;;;;;5152423;27;20236;-78
2023/12/05 07:57:36;;;;;;;38.00;27.90;;;-0.50;1.00;;;;;;5153371;27;20237;-78
2023/12/05 08:00:05;;;;;;;36.72;27.08;;;-0.40;1.00;;;;;;5148884;27;20235;-78
2023/12/05 08:02:32;;;;;;;39.15;28.23;;;-0.40;1.00;;;;;;5155834;27;20265;-79
2023/12/05 08:04:59;;;;;;;33.20;26.65;;;-0.30;1.00;;;;;;5156183;27;20217;-78
2023/12/05 08:07:26;;;;;;;32.88;24.48;;;-0.20;1.00;;;;;;5151349;27;20234;-79
2023/12/05 08:09:54;;;;;;;36.50;25.65;;;-0.10;1.00;;;;;;5149599;27;21049;-79
2023/12/05 08:12:21;;;;;;;36.10;27.10;;;-0.20;1.00;;;;;;5152653;27;20233;-78
2023/12/05 08:14:48;;;;;;;35.05;26.42;;;-0.10;1.00;;;;;;5152261;27;20328;-79
2023/12/05 08:17:15;;;;;;;35.38;27.55;;;-0.20;1.00;;;;;;5146941;27;20243;-79
2023/12/05 08:19:42;;;;;;;36.95;27.48;;;-0.20;1.00;;;;;;5151393;27;20283;-79
2023/12/05 08:22:09;;;;;;;37.20;27.10;;;-0.20;1.00;;;;;;5147082;27;20233;-78
2023/12/05 08:24:36;;;;;;;35.67;26.98;;;-0.20;1.00;;;;;;5157076;27;20928;-80
2023/12/05 08:27:05;;;;;;;36.58;28.08;;;-0.20;1.00;;;;;;5152712;27;20320;-78
2023/12/05 08:29:32;;;;;;;38.47;26.90;;;-0.10;1.00;;;;;;5153970;27;20234;-79
2023/12/05 08:32:02;;;;;;;35.72;25.05;;;-0.10;1.00;;;;;;5149554;27;20820;-79
2023/12/05 08:34:32;;;;;;;33.65;26.77;;;-0.10;1.00;;;;;;5152544;27;20238;-79
2023/12/05 08:36:59;;;;;;;30.45;25.15;;;-0.10;1.00;;;;;;5150815;27;20234;-78
2023/12/05 08:39:26;;;;;;;35.25;26.02;;;-0.20;1.00;;;;;;5153981;27;20626;-80
2023/12/05 08:41:54;;;;;;;40.58;31.27;;;-0.20;1.00;;;;;;5145544;27;21604;-79
2023/12/05 08:44:23;;;;;;;33.72;26.15;;;-0.10;1.00;;;;;;5151670;27;20238;-78
2023/12/05 08:46:50;;;;;;;32.22;25.15;;;-0.20;1.00;;;;;;5152437;27;20622;-79
2023/12/05 08:49:17;;;;;;;36.75;26.70;;;-0.10;1.00;;;;;;5145615;27;21037;-78
2023/12/05 08:51:44;;;;;;;35.20;27.40;;;-0.10;1.00;;;;;;5144544;27;20286;-79
2023/12/05 08:54:12;;;;;;;36.65;27.40;;;-0.10;1.00;;;;;;5150852;27;20343;-79
2023/12/05 08:56:39;;;;;;;33.70;25.65;;;0.00;1.00;;;;;;5151938;27;20997;-80
2023/12/05 08:59:07;;;;;;;34.58;26.38;;;0.00;1.00;;;;;;5155546;27;20230;-81
2023/12/05 09:01:38;;;;;;;35.22;25.90;;;-0.10;1.00;;;;;;5157565;27;20234;-80
2023/12/05 09:04:05;;;;;;;34.15;24.73;;;-0.20;1.00;;;;;;5157487;27;20839;-80
2023/12/05 09:06:31;;;;;;;33.63;26.45;;;-0.10;1.00;;;;;;5157688;27;20238;-78
2023/12/05 09:08:58;;;;;;;33.67;25.13;;;0.10;1.00;;;;;;5156106;27;21507;-79
2023/12/05 09:11:27;;;;;;;33.13;24.42;;;0.10;1.00;;;;;;5155117;27;20460;-79
2023/12/05 09:13:54;;;;;;;31.00;23.90;;;0.00;1.00;;;;;;5158283;27;20287;-79
2023/12/05 09:16:24;;;;;;;38.13;28.13;;;0.00;1.00;;;;;;5155593;27;20241;-80
2023/12/05 09:18:53;;;;;;;32.53;24.25;;;0.20;1.00;;;;;;5156682;27;20230;-81
2023/12/05 09:21:22;;;;;;;35.13;26.20;;;0.20;1.00;;;;;;5160086;27;20237;-82
2023/12/05 09:23:51;;;;;;;35.90;25.80;;;0.20;1.00;;;;;;5157683;27;20325;-80
2023/12/05 09:26:18;;;;;;;30.90;24.85;;;0.20;1.00;;;;;;5155124;27;20245;-80
2023/12/05 09:28:46;;;;;;;34.75;27.00;;;0.30;1.00;;;;;;5159148;27;20876;-82
2023/12/05 09:31:13;;;;;;;31.00;24.15;;;0.40;1.00;;;;;;5156334;27;20328;-80
2023/12/05 09:33:40;;;;;;;33.42;25.15;;;0.40;1.00;;;;;;5151194;27;20238;-80
2023/12/05 09:36:12;;;;;;;35.10;25.48;;;0.50;1.00;;;;;;5152125;27;20237;-81
2023/12/05 09:38:42;;;;;;;32.78;24.80;;;0.50;1.00;;;;;;5156948;27;20237;-80
2023/12/05 09:41:11;;;;;;;32.65;24.17;;;0.70;1.00;;;;;;5164688;27;21034;-80
2023/12/05 09:43:40;;;;;;;30.40;23.60;;;0.70;1.00;;;;;;5156397;27;20982;-80
2023/12/05 09:46:08;;;;;;;30.08;24.52;;;0.70;1.00;;;;;;5153627;27;20264;-77
2023/12/05 09:48:42;;;;;;;30.63;23.77;;;0.70;1.00;;;;;;5155138;27;20738;-78
2023/12/05 09:51:11;;;;;;;32.10;25.05;;;0.80;1.00;;;;;;5151642;27;20242;-77
2023/12/05 09:53:39;;;;;;;33.20;24.10;;;0.80;1.00;;;;;;5155477;27;20295;-79
2023/12/05 09:56:08;;;;;;;31.40;24.45;;;0.90;1.00;;;;;;5154778;27;20234;-77
2023/12/05 09:58:36;;;;;;;30.67;23.23;;;0.80;1.00;;;;;;5154469;27;20726;-79
2023/12/05 10:01:05;;;;;;;38.88;28.08;;;0.80;1.00;;;;;;5152951;27;20233;-77
2023/12/05 10:03:37;;;;;;;29.92;23.52;;;0.80;1.00;;;;;;5153961;27;20233;-78
2023/12/05 10:06:07;;;;;;;29.95;25.15;;;0.90;1.00;;;;;;5152290;27;20244;-80
2023/12/05 10:08:37;;;;;;;31.50;25.20;;;0.90;1.00;;;;;;5148973;27;20242;-81
2023/12/05 10:11:06;;;;;;;29.40;22.05;;;0.80;1.00;;;;;;5157136;27;20310;-80
2023/12/05 10:13:33;;;;;;;31.05;24.40;;;0.90;1.00;;;;;;5157523;27;20243;-77
2023/12/05 10:16:04;;;;;;;30.38;23.27;;;0.70;1.00;;;;;;5151661;27;20238;-78
2023/12/05 10:18:32;;;;;;;32.22;23.38;;;0.80;1.00;;;;;;5152594;27;20234;-79
2023/12/05 10:21:01;;;;;;;35.58;25.20;;;0.90;1.00;;;;;;5149941;27;21430;-80
2023/12/05 10:23:30;;;;;;;26.75;21.88;;;0.90;1.00;;;;;;5153778;27;20281;-79
2023/12/05 10:26:03;;;;;;;28.65;22.92;;;0.90;1.00;;;;;;5155767;27;20309;-79
2023/12/05 10:28:32;;;;;;;30.45;23.30;;;1.00;1.00;;;;;;5154807;27;20980;-79
2023/12/05 10:31:00;;;;;;;29.20;24.10;;;1.00;1.00;;;;;;5153490;27;20321;-79
2023/12/05 10:33:29;;;;;;;26.80;22.42;;;1.00;1.00;;;;;;5155357;27;20236;-81
2023/12/05 10:35:56;;;;;;;29.60;23.20;;;1.00;1.00;;;;;;5153490;27;20306;-79
2023/12/05 10:38:23;;;;;;;30.27;23.58;;;1.10;1.00;;;;;;5158534;27;20237;-79
2023/12/05 10:40:51;;;;;;;27.05;23.27;;;1.00;1.00;;;;;;5156612;27;21057;-77
2023/12/05 10:43:23;;;;;;;28.33;23.65;;;1.00;1.00;;;;;;5155314;27;20229;-78
2023/12/05 10:45:50;;;;;;;29.88;23.70;;;1.20;1.00;;;;;;5152567;27;20237;-78
2023/12/05 10:48:18;;;;;;;28.67;22.90;;;1.20;1.00;;;;;;5157051;27;20360;-77
2023/12/05 10:50:48;;;;;;;28.20;22.60;;;1.20;1.00;;;;;;5153709;27;20317;-77
2023/12/05 10:53:15;;;;;;;33.58;27.02;;;1.20;1.00;;;;;;5159725;27;20236;-78
2023/12/05 10:55:43;;;;;;;31.63;24.27;;;1.20;1.00;;;;;;5155134;27;20234;-78
2023/12/05 10:58:15;;;;;;;27.27;22.42;;;1.20;1.00;;;;;;5151229;27;20234;-78
2023/12/05 11:00:43;;;;;;;30.25;22.40;;;1.10;1.00;;;;;;5158398;27;20233;-79
2023/12/05 11:03:16;;;;;;;30.15;22.83;;;1.10;1.00;;;;;;5149946;27;20239;-77
2023/12/05 11:05:43;;;;;;;28.20;23.08;;;1.10;1.00;;;;;;5155457;27;20238;-79
2023/12/05 11:08:10;;;;;;;28.55;22.60;;;1.30;1.00;;;;;;5151873;27;20297;-78
2023/12/05 11:10:38;;;;;;;27.85;23.67;;;1.30;1.00;;;;;;5154204;27;20234;-82
2023/12/05 11:13:06;;;;;;;28.25;23.98;;;1.30;1.00;;;;;;5156165;27;20240;-81
2023/12/05 11:15:37;;;;;;;31.45;23.63;;;1.40;1.00;;;;;;5161904;27;20234;-79
2023/12/05 11:18:35;;;;;;;27.20;22.67;;;1.50;1.00;;;;;;5152242;27;20260;-78
2023/12/05 11:21:22;;;;;;;33.33;22.15;;;1.60;1.00;;;;;;5155393;27;20225;-78
2023/12/05 11:24:15;;;;;;;28.77;21.60;;;1.50;1.00;;;;;;5155739;27;20230;-78
2023/12/05 11:27:10;;;;;;;27.80;21.45;;;1.50;1.00;;;;;;5151998;27;20237;-77
2023/12/05 11:30:10;;;;;;;26.67;21.80;;;1.50;1.00;;;;;;5148274;27;20262;-77
2023/12/05 11:32:55;;;;;;;27.60;22.30;;;1.60;1.00;;;;;;5152540;27;20833;-79
2023/12/05 11:35:36;;;;;;;26.15;23.00;;;1.70;1.00;;;;;;5155785;27;20280;-78
2023/12/05 11:38:10;;;;;;;27.98;22.17;;;1.90;1.00;;;;;;5152751;27;20318;-79
2023/12/05 11:40:37;;;;;;;26.77;22.38;;;1.80;1.00;;;;;;5149599;27;20234;-81
2023/12/05 11:43:08;;;;;;;25.77;21.25;;;1.90;1.00;;;;;;5158705;27;20278;-79
2023/12/05 11:45:37;;;;;;;34.60;24.33;;;2.10;1.00;;;;;;5149137;27;20750;-78
2023/12/05 11:48:14;;;;;;;29.02;22.30;;;2.10;1.00;;;;;;5152365;27;21073;-78
2023/12/05 11:50:43;;;;;;;28.27;22.42;;;2.00;1.00;;;;;;5159825;27;20237;-79
2023/12/05 11:53:15;;;;;;;26.20;22.08;;;1.90;1.00;;;;;;5155050;27;20233;-79
2023/12/05 11:55:45;;;;;;;26.45;22.45;;;1.80;1.00;;;;;;5152272;27;20349;-76
2023/12/05 11:58:27;;;;;;;25.95;20.80;;;1.80;1.00;;;;;;5154022;27;20320;-79
2023/12/05 12:01:06;;;;;;;28.92;22.42;;;1.70;1.00;;;;;;5151553;27;20233;-78
2023/12/05 12:03:46;;;;;;;27.75;21.65;;;1.60;1.00;;;;;;5151927;27;20340;-76
2023/12/05 12:06:19;;;;;;;26.02;19.75;;;1.60;1.00;;;;;;5153448;27;20282;-80
2023/12/05 12:08:48;;;;;;;23.58;20.25;;;1.70;1.00;;;;;;5154096;27;20230;-77
2023/12/05 12:11:20;;;;;;;25.85;22.60;;;1.70;1.00;;;;;;5150923;27;20316;-78
2023/12/05 12:13:49;;;;;;;27.30;20.65;;;1.90;1.00;;;;;;5151671;27;20249;-79
2023/12/05 12:16:18;;;;;;;26.40;20.90;;;1.80;1.00;;;;;;5153104;27;20241;-78
2023/12/05 12:18:45;;;;;;;27.45;22.40;;;1.80;1.00;;;;;;5152156;27;20241;-79
2023/12/05 12:21:14;;;;;;;30.55;21.38;;;1.90;1.00;;;;;;5153856;27;20685;-79
2023/12/05 12:23:41;;;;;;;26.92;21.70;;;1.70;1.00;;;;;;5151569;27;20233;-80
2023/12/05 12:26:25;;;;;;;28.85;22.65;;;1.70;1.00;;;;;;5159445;27;20262;-80
2023/12/05 12:28:53;;;;;;;30.08;23.25;;;1.60;1.00;;;;;;5156959;27;21063;-80
2023/12/05 12:31:27;;;;;;;30.23;23.48;;;1.80;1.00;;;;;;5146205;27;20243;-79
2023/12/05 12:33:59;;;;;;;25.60;22.40;;;1.80;1.00;;;;;;5158157;27;20246;-80
2023/12/05 12:36:27;;;;;;;26.48;22.80;;;1.80;1.00;;;;;;5160830;27;21045;-80
2023/12/05 12:38:57;;;;;;;39.85;26.00;;;1.70;1.00;;;;;;5154321;27;20325;-79
2023/12/05 12:41:24;;;;;;;28.05;22.77;;;1.60;1.00;;;;;;5159417;27;20269;-79
2023/12/05 12:43:53;;;;;;;25.33;21.65;;;1.80;1.00;;;;;;5157733;27;20245;-80
2023/12/05 12:46:22;;;;;;;26.30;21.92;;;1.70;1.00;;;;;;5158983;27;20243;-80
2023/12/05 12:48:49;;;;;;;29.27;22.85;;;1.60;1.00;;;;;;5160237;27;20226;-80
2023/12/05 12:51:17;;;;;;;30.92;25.25;;;1.70;1.00;;;;;;5154955;27;20250;-78